Mc Connelsville, Ohio
Current Conditions -  °F | °C
As of 10:28 AM on Thursday 23 Oct 2014 (Local Time) from KZZV Reporting Station
Broken Clouds Broken Clouds  
Wind Chill: 43°   Ceiling: 1300
Heat Index: 48°   Visibility: 10mi
Dew Point: 41°   Wind: 13mph
Humidity: 77%   Direction: 310°NW
Pressure: 30.22"   Gusts: NA
Location:  39.67°N, 81.8376°W
Report Text: KZZV 231428Z AUTO 31011KT 10SM BKN013 09/05 A3022 RMK AO2 T00890050
Loading
Personal Weather Stations






























Interactive Weather Map
Tropical Storm Tracking
New forecast layout! Learn more

10-Day Weather Forecast

Advertisements
Track Severe Weather on mobile